createdAt,value
2023-03-25T00:04:51.258Z,100.00
2023-03-25T00:10:13.948Z,100.00
2023-03-25T00:15:36.224Z,100.00
2023-03-25T00:20:59.736Z,100.00
2023-03-25T00:26:22.126Z,100.00
2023-03-25T00:31:44.462Z,100.00
2023-03-25T00:37:06.755Z,100.00
2023-03-25T00:42:29.965Z,100.00
2023-03-25T00:47:52.263Z,100.00
2023-03-25T00:53:14.693Z,100.00
2023-03-25T00:58:36.961Z,100.00
2023-03-25T01:04:03.355Z,100.00
2023-03-25T01:15:01.308Z,100.00
2023-03-25T01:20:24.299Z,100.00
2023-03-25T01:25:46.749Z,100.00
2023-03-25T01:31:23.681Z,100.00
2023-03-25T01:36:47.973Z,100.00
2023-03-25T01:42:20.228Z,100.00
2023-03-25T01:47:42.666Z,100.00
2023-03-25T01:53:06.973Z,100.00
2023-03-25T01:58:32.330Z,100.00
2023-03-25T02:03:58.511Z,100.00
2023-03-25T02:09:24.319Z,100.00
2023-03-25T02:14:49.968Z,100.00
2023-03-25T02:20:42.775Z,100.00
2023-03-25T02:26:37.556Z,100.00
2023-03-25T02:32:15.736Z,100.00
2023-03-25T02:38:15.774Z,100.00
2023-03-25T02:44:01.552Z,100.00
2023-03-25T02:49:31.574Z,100.00
2023-03-25T02:54:57.733Z,100.00
2023-03-25T03:00:24.785Z,100.00
2023-03-25T03:05:50.929Z,100.00
2023-03-25T03:11:37.133Z,100.00
2023-03-25T03:17:30.922Z,100.00
2023-03-25T03:23:13.519Z,100.00
2023-03-25T03:28:59.796Z,100.00
2023-03-25T03:34:36.828Z,100.00
2023-03-25T03:40:01.523Z,100.00
2023-03-25T03:45:34.759Z,100.00
2023-03-25T03:51:18.052Z,100.00
2023-03-25T03:57:02.152Z,100.00
2023-03-25T04:02:47.995Z,100.00
2023-03-25T04:08:22.139Z,100.00
2023-03-25T04:13:48.958Z,100.00
2023-03-25T04:19:13.498Z,100.00
2023-03-25T04:24:37.883Z,100.00
2023-03-25T04:30:17.322Z,100.00
2023-03-25T04:35:40.840Z,100.00
2023-03-25T04:41:05.561Z,100.00
2023-03-25T04:46:30.241Z,100.00
2023-03-25T04:51:54.945Z,100.00
2023-03-25T04:57:17.577Z,100.00
2023-03-25T05:02:40.483Z,100.00
2023-03-25T05:08:11.843Z,100.00
2023-03-25T05:13:34.188Z,100.00
2023-03-25T05:18:56.540Z,100.00
2023-03-25T05:24:22.031Z,100.00
2023-03-25T05:29:44.843Z,100.00
2023-03-25T05:35:07.752Z,100.00
2023-03-25T05:40:30.231Z,100.00
2023-03-25T05:45:52.941Z,100.00
2023-03-25T05:51:18.446Z,100.00
2023-03-25T05:56:43.359Z,100.00
2023-03-25T06:02:08.020Z,100.00
2023-03-25T06:07:31.551Z,100.00
2023-03-25T06:12:54.496Z,100.00
2023-03-25T06:18:17.352Z,100.00
2023-03-25T06:23:40.204Z,100.00
2023-03-25T06:29:04.368Z,100.00
2023-03-25T06:34:26.745Z,100.00
2023-03-25T06:39:50.060Z,100.00
2023-03-25T06:45:14.149Z,100.00
2023-03-25T06:50:37.347Z,100.00
2023-03-25T06:56:02.346Z,100.00
2023-03-25T07:01:24.634Z,100.00
2023-03-25T07:06:46.938Z,100.00
2023-03-25T07:12:09.798Z,100.00
2023-03-25T07:17:33.272Z,100.00
2023-03-25T07:22:55.654Z,100.00
2023-03-25T07:28:18.129Z,90.96
2023-03-25T07:33:41.025Z,86.08
2023-03-25T07:39:03.626Z,84.43
2023-03-25T07:44:25.951Z,82.75
2023-03-25T07:49:49.882Z,81.83
2023-03-25T07:55:12.533Z,80.48
2023-03-25T08:00:37.901Z,79.42
2023-03-25T08:06:07.199Z,78.75
2023-03-25T08:11:29.586Z,76.80
2023-03-25T08:16:52.676Z,76.33
2023-03-25T08:22:15.368Z,76.52
2023-03-25T08:27:37.764Z,76.65
2023-03-25T08:33:00.221Z,76.33
2023-03-25T08:38:25.577Z,75.41
2023-03-25T08:43:48.423Z,74.41
2023-03-25T08:49:12.013Z,74.26
2023-03-25T08:54:34.851Z,73.68
2023-03-25T08:59:57.325Z,73.28
2023-03-25T09:05:20.287Z,73.65
2023-03-25T09:10:43.793Z,73.04
2023-03-25T09:16:06.082Z,72.84
2023-03-25T09:21:28.381Z,73.21
2023-03-25T09:26:51.614Z,73.89
2023-03-25T09:32:15.562Z,74.27
2023-03-25T09:37:38.293Z,74.46
2023-03-25T09:43:34.282Z,74.47
2023-03-25T09:49:00.726Z,75.38
2023-03-25T09:54:37.013Z,75.87
2023-03-25T10:00:04.477Z,76.08
2023-03-25T10:05:49.228Z,75.81
2023-03-25T10:11:41.460Z,74.69
2023-03-25T10:17:39.282Z,73.68
2023-03-25T10:23:33.452Z,73.60
2023-03-25T10:29:01.807Z,74.67
2023-03-25T10:34:36.200Z,77.43
2023-03-25T10:40:02.107Z,79.02
2023-03-25T10:45:36.069Z,79.19
2023-03-25T10:51:04.920Z,78.30
2023-03-25T10:56:43.613Z,76.34
2023-03-25T11:02:08.690Z,74.36
2023-03-25T11:07:47.721Z,72.03
2023-03-25T11:13:11.453Z,69.51
2023-03-25T11:18:45.985Z,68.37
2023-03-25T11:24:13.005Z,66.62
2023-03-25T11:29:38.861Z,64.43
2023-03-25T11:35:04.219Z,61.68
2023-03-25T11:40:29.981Z,60.34
2023-03-25T11:46:08.673Z,63.11
2023-03-25T11:51:35.768Z,62.96
2023-03-25T11:57:03.284Z,58.13
2023-03-25T12:02:40.005Z,58.62
2023-03-25T12:08:10.237Z,59.66
2023-03-25T12:13:32.721Z,58.93
2023-03-25T12:19:29.248Z,59.05
2023-03-25T12:25:27.861Z,57.11
2023-03-25T12:31:34.076Z,58.23
2023-03-25T12:37:22.376Z,60.94
2023-03-25T12:43:04.840Z,65.64
2023-03-25T12:49:02.346Z,67.01
2023-03-25T12:54:41.690Z,69.55
2023-03-25T13:00:26.490Z,77.27
2023-03-25T13:06:20.426Z,82.82
2023-03-25T13:11:58.571Z,86.12
2023-03-25T13:17:46.463Z,89.39
2023-03-25T13:23:13.174Z,91.95
2023-03-25T13:28:40.018Z,93.48
2023-03-25T13:34:40.929Z,94.25
2023-03-25T13:40:20.212Z,94.17
2023-03-25T13:46:05.602Z,91.66
2023-03-25T13:51:29.260Z,88.66
2023-03-25T13:57:33.627Z,86.21
2023-03-25T14:03:30.776Z,84.06
2023-03-25T14:09:27.641Z,81.96
2023-03-25T14:14:58.352Z,80.62
2023-03-25T14:20:41.705Z,77.05
2023-03-25T14:26:10.777Z,72.28
2023-03-25T14:37:13.462Z,72.05
2023-03-25T14:42:48.940Z,71.31
2023-03-25T14:48:23.243Z,72.61
2023-03-25T14:53:39.477Z,74.19
2023-03-25T14:59:04.478Z,74.27
2023-03-25T15:04:38.771Z,74.79
2023-03-25T15:10:07.831Z,75.32
2023-03-25T15:16:02.566Z,75.90
2023-03-25T15:21:30.246Z,76.42
2023-03-25T15:27:02.714Z,77.33
2023-03-25T15:32:39.731Z,77.78
2023-03-25T15:38:16.998Z,75.45
2023-03-25T15:44:20.404Z,72.38
2023-03-25T15:50:07.008Z,70.74
2023-03-25T15:55:42.681Z,64.79
2023-03-25T16:01:10.169Z,61.91
2023-03-25T16:06:34.689Z,61.44
2023-03-25T16:11:59.637Z,62.61
2023-03-25T16:17:26.088Z,65.20
2023-03-25T16:22:50.363Z,63.00
2023-03-25T16:28:21.650Z,61.54
2023-03-25T16:33:47.440Z,64.65
2023-03-25T16:39:10.389Z,66.05
2023-03-25T16:44:37.915Z,66.36
2023-03-25T16:50:03.441Z,66.63
2023-03-25T16:55:59.340Z,67.37
2023-03-25T17:01:23.594Z,68.67
2023-03-25T17:06:56.350Z,69.84
2023-03-25T17:12:24.715Z,71.01
2023-03-25T17:18:02.872Z,72.32
2023-03-25T17:23:41.829Z,73.37
2023-03-25T17:29:18.540Z,73.82
2023-03-25T17:34:45.182Z,74.17
2023-03-25T17:40:13.144Z,74.44
2023-03-25T17:45:36.362Z,74.68
2023-03-25T17:51:07.258Z,75.42
2023-03-25T17:56:34.107Z,78.62
2023-03-25T18:01:56.655Z,82.56
2023-03-25T18:07:21.233Z,85.98
2023-03-25T18:12:43.780Z,88.58
2023-03-25T18:18:06.576Z,90.01
2023-03-25T18:23:30.642Z,90.81
2023-03-25T18:28:53.313Z,90.86
2023-03-25T18:34:15.771Z,90.67
2023-03-25T18:39:40.814Z,90.06
2023-03-25T18:45:03.155Z,89.57
2023-03-25T18:50:53.179Z,89.38
2023-03-25T18:56:19.034Z,89.39
2023-03-25T19:01:42.808Z,89.37
2023-03-25T19:07:05.120Z,88.79
2023-03-25T19:12:27.361Z,87.44
2023-03-25T19:17:50.639Z,86.27
2023-03-25T19:23:17.224Z,86.22
2023-03-25T19:28:42.074Z,86.85
2023-03-25T19:34:04.307Z,88.07
2023-03-25T19:39:26.568Z,89.76
2023-03-25T19:44:52.559Z,91.46
2023-03-25T19:50:21.618Z,93.04
2023-03-25T19:55:44.048Z,94.64
2023-03-25T20:01:07.088Z,96.25
2023-03-25T20:06:29.439Z,97.37
2023-03-25T20:11:51.714Z,97.97
2023-03-25T20:17:14.116Z,98.84
2023-03-25T20:22:36.421Z,100.00
2023-03-25T20:27:59.076Z,100.00
2023-03-25T20:33:21.896Z,100.00
2023-03-25T20:38:56.134Z,100.00
2023-03-25T20:44:08.915Z,100.00
2023-03-25T20:49:32.381Z,100.00
2023-03-25T20:54:56.144Z,100.00
2023-03-25T21:00:20.320Z,100.00
2023-03-25T21:05:44.712Z,100.00
2023-03-25T21:11:07.970Z,100.00
2023-03-25T21:16:31.417Z,100.00
2023-03-25T21:21:55.713Z,100.00
2023-03-25T21:27:18.213Z,100.00
2023-03-25T21:32:40.570Z,99.47
2023-03-25T21:38:04.000Z,97.16
2023-03-25T21:43:26.643Z,95.48
2023-03-25T21:48:50.863Z,94.39
2023-03-25T21:54:14.855Z,93.42
2023-03-25T21:59:37.134Z,93.02
2023-03-25T22:05:01.509Z,92.82
2023-03-25T22:10:24.722Z,92.61
2023-03-25T22:15:47.256Z,92.43
2023-03-25T22:21:29.768Z,92.30
2023-03-25T22:26:52.865Z,92.31
2023-03-25T22:32:15.118Z,92.36
2023-03-25T22:37:37.346Z,91.97
2023-03-25T22:42:59.595Z,91.23
2023-03-25T22:48:22.004Z,90.64
2023-03-25T22:53:45.729Z,90.28
2023-03-25T22:59:10.384Z,90.23
2023-03-25T23:04:32.796Z,90.27
2023-03-25T23:09:56.192Z,90.43
2023-03-25T23:15:18.707Z,90.86
2023-03-25T23:20:40.928Z,91.17
2023-03-25T23:26:22.375Z,91.33
2023-03-25T23:31:47.652Z,91.30
2023-03-25T23:37:10.634Z,91.25
2023-03-25T23:42:35.457Z,91.33
2023-03-25T23:47:57.327Z,91.65
2023-03-25T23:53:21.217Z,91.99
2023-03-25T23:58:43.537Z,92.33
